Buoy 46930

sailwx.info

Track history (hours):
 
Tides and Currents Weather Stations Pressure Air Temp Water Temp Dewpoint Dewpoint Depression Visibility Wind Speed Wind Dir Waves Ship Positions

Drifting buoy 46930

Last reported at 2017-Mar-28 10:00 UTC. Time now 2017-Mar-28 19:42 UTC.
Position N 17°46' E 167°00'.

Date/timePositionNaut miles runAvg speedWind from/ knotsBaromVisibWave heightAir tempDewpointWater temp
2017-Mar-28 10:00N 17°46' E 167°00'0 0.0
2017-Mar-28 09:00N 17°46' E 167°00'1 0.6
2017-Mar-28 08:00N 17°46' E 167°01'2 1.0
2017-Mar-28 06:00N 17°45' E 167°02'0 0.0
2017-Mar-28 05:00N 17°45' E 167°02'4 0.5
2017-Mar-27 21:00N 17°43' E 167°06'1 1.3
2017-Mar-27 20:00N 17°41' E 167°05'2 2.1
2017-Mar-27 19:00N 17°40' E 167°07'1 0.8
2017-Mar-27 18:00N 17°40' E 167°08'1 1.3
2017-Mar-27 17:00N 17°39' E 167°09'3 0.6
2017-Mar-27 11:00N 17°38' E 167°13'1 0.6
2017-Mar-27 09:00N 17°39' E 167°14'1 0.8
2017-Mar-27 08:00N 17°38' E 167°14'0 0.0
2017-Mar-27 07:00N 17°38' E 167°14'1 0.6
2017-Mar-27 06:00N 17°38' E 167°14'1 0.6
2017-Mar-27 05:00N 17°38' E 167°15'5 0.9
2017-Mar-26 23:00N 17°35' E 167°20'1 0.3
2017-Mar-26 20:00N 17°34' E 167°20'1 1.3
2017-Mar-26 19:00N 17°34' E 167°22'2 0.9
2017-Mar-26 17:00N 17°33' E 167°23'5 0.6
2017-Mar-26 09:00N 17°31' E 167°28'0 0.0
2017-Mar-26 08:00N 17°31' E 167°28'1 0.8
2017-Mar-26 07:00N 17°30' E 167°28'1 0.7
2017-Mar-26 05:00N 17°29' E 167°29'8 1.2
2017-Mar-25 22:00N 17°22' E 167°33'0 0.0
2017-Mar-25 21:00N 17°22' E 167°33'3 1.5
2017-Mar-25 19:00N 17°19' E 167°35'7 0.8
2017-Mar-25 10:00N 17°13' E 167°39'1 0.8
2017-Mar-25 09:00N 17°13' E 167°40'1 1.3
2017-Mar-25 08:00N 17°12' E 167°41'1 0.8
2017-Mar-25 07:00N 17°11' E 167°41'1 0.8
2017-Mar-25 06:00N 17°11' E 167°42'1 1.3
2017-Mar-25 05:00N 17°10' E 167°43'0 0.0
2017-Mar-25 04:00N 17°10' E 167°43'2 2.1
2017-Mar-25 03:00N 17°09' E 167°45'4 0.8
2017-Mar-24 22:00N 17°08' E 167°49'1 0.4
2017-Mar-24 20:00N 17°07' E 167°50'1 1.3
2017-Mar-24 19:00N 17°08' E 167°51'3 2.9
2017-Mar-24 18:00N 17°08' E 167°54'4 0.4
2017-Mar-24 08:00N 17°10' E 167°58'0 0.0
2017-Mar-24 07:00N 17°10' E 167°58'1 1.3
2017-Mar-24 06:00N 17°10' E 167°59'1 0.6
2017-Mar-24 05:00N 17°10' E 167°59'2 0.9
2017-Mar-24 03:00N 17°11' E 168°01'3 0.6
2017-Mar-23 21:00N 17°11' E 168°05'1 0.8
2017-Mar-23 20:00N 17°12' E 168°05'1 0.6
2017-Mar-23 19:00N 17°13' E 168°05'4 0.4
2017-Mar-23 09:00N 17°14' E 168°09'1 0.6
2017-Mar-23 08:00N 17°14' E 168°08'0 0.0
2017-Mar-23 07:00N 17°14' E 168°08'0 0.0
2017-Mar-23 05:00N 17°14' E 168°08'0 0.0
2017-Mar-23 03:00N 17°14' E 168°08'2 0.6
2017-Mar-22 23:00N 17°12' E 168°09'1 0.3
2017-Mar-22 21:00N 17°11' E 168°09'1 0.8
2017-Mar-22 20:00N 17°11' E 168°10'1 0.6
2017-Mar-22 19:00N 17°11' E 168°10'1 0.6
2017-Mar-22 18:00N 17°10' E 168°10'9 0.8
2017-Mar-22 07:00N 17°06' E 168°19'0 0.0
2017-Mar-22 06:00N 17°06' E 168°19'2 2.4
2017-Mar-22 05:00N 17°05' E 168°21'6 1.0
2017-Mar-21 23:00N 17°06' E 168°27'1 0.4
2017-Mar-21 20:00N 17°06' E 168°28'2 1.7
2017-Mar-21 19:00N 17°07' E 168°29'1 0.8
2017-Mar-21 18:00N 17°08' E 168°30'6 0.7
2017-Mar-21 10:00N 17°10' E 168°35'1 0.6
2017-Mar-21 09:00N 17°10' E 168°36'0 0.0
2017-Mar-21 08:00N 17°10' E 168°36'1 0.6
2017-Mar-21 07:00N 17°10' E 168°37'1 0.6
2017-Mar-21 05:00N 17°11' E 168°38'5 0.7
2017-Mar-20 22:00N 17°11' E 168°43'1 0.6
2017-Mar-20 21:00N 17°11' E 168°43'2 1.7
2017-Mar-20 20:00N 17°11' E 168°45'1 0.6
2017-Mar-20 19:00N 17°11' E 168°46'1 1.3
2017-Mar-20 18:00N 17°12' E 168°47'1 0.6
2017-Mar-20 17:00N 17°12' E 168°47'1 1.1
2017-Mar-20 16:00N 17°12' E 168°49'6 1.1
2017-Mar-20 10:00N 17°15' E 168°55'2 1.0
2017-Mar-20 08:00N 17°16' E 168°56'0 0.0
2017-Mar-20 07:00N 17°16' E 168°56'3 1.3
2017-Mar-20 05:00N 17°17' E 168°59'10 1.5
2017-Mar-19 22:00N 17°21' E 169°09'3 1.3
2017-Mar-19 20:00N 17°22' E 169°11'0 0.0
2017-Mar-19 19:00N 17°22' E 169°11'2 1.1
2017-Mar-19 17:00N 17°24' E 169°13'10 1.3
2017-Mar-19 09:00N 17°30' E 169°21'2 1.7
2017-Mar-19 08:00N 17°30' E 169°23'1 1.3
2017-Mar-19 07:00N 17°31' E 169°24'1 1.1
2017-Mar-19 06:00N 17°31' E 169°25'1 1.3
2017-Mar-19 05:00N 17°32' E 169°26'2 2.4
2017-Mar-19 04:00N 17°32' E 169°28'8 1.1
2017-Mar-18 21:00N 17°36' E 169°35'1 1.3
2017-Mar-18 20:00N 17°37' E 169°37'1 1.3
2017-Mar-18 19:00N 17°37' E 169°38'1 0.6
2017-Mar-18 17:00N 17°37' E 169°39'8 1.1
2017-Mar-18 10:00N 17°43' E 169°44'  
Track history (hours):
 
Tides and Currents Weather Stations Pressure Air Temp Water Temp Dewpoint Dewpoint Depression Visibility Wind Speed Wind Dir Waves Ship Positions

Drifting buoy 46930

Last reported at 2017-Mar-28 10:00 UTC. Time now 2017-Mar-28 19:42 UTC.
Position N 17°46' E 167°00'.

Date/timePositionNaut miles runAvg speedWind from/ knotsBaromVisibWave heightAir tempDewpointWater temp
2017-Mar-28 10:00N 17°46' E 167°00'0 0.0
2017-Mar-28 09:00N 17°46' E 167°00'1 0.6
2017-Mar-28 08:00N 17°46' E 167°01'2 1.0
2017-Mar-28 06:00N 17°45' E 167°02'0 0.0
2017-Mar-28 05:00N 17°45' E 167°02'4 0.5
2017-Mar-27 21:00N 17°43' E 167°06'1 1.3
2017-Mar-27 20:00N 17°41' E 167°05'2 2.1
2017-Mar-27 19:00N 17°40' E 167°07'1 0.8
2017-Mar-27 18:00N 17°40' E 167°08'1 1.3
2017-Mar-27 17:00N 17°39' E 167°09'3 0.6
2017-Mar-27 11:00N 17°38' E 167°13'1 0.6
2017-Mar-27 09:00N 17°39' E 167°14'1 0.8
2017-Mar-27 08:00N 17°38' E 167°14'0 0.0
2017-Mar-27 07:00N 17°38' E 167°14'1 0.6
2017-Mar-27 06:00N 17°38' E 167°14'1 0.6
2017-Mar-27 05:00N 17°38' E 167°15'5 0.9
2017-Mar-26 23:00N 17°35' E 167°20'1 0.3
2017-Mar-26 20:00N 17°34' E 167°20'1 1.3
2017-Mar-26 19:00N 17°34' E 167°22'2 0.9
2017-Mar-26 17:00N 17°33' E 167°23'5 0.6
2017-Mar-26 09:00N 17°31' E 167°28'0 0.0
2017-Mar-26 08:00N 17°31' E 167°28'1 0.8
2017-Mar-26 07:00N 17°30' E 167°28'1 0.7
2017-Mar-26 05:00N 17°29' E 167°29'8 1.2
2017-Mar-25 22:00N 17°22' E 167°33'0 0.0
2017-Mar-25 21:00N 17°22' E 167°33'3 1.5
2017-Mar-25 19:00N 17°19' E 167°35'7 0.8
2017-Mar-25 10:00N 17°13' E 167°39'1 0.8
2017-Mar-25 09:00N 17°13' E 167°40'1 1.3
2017-Mar-25 08:00N 17°12' E 167°41'1 0.8
2017-Mar-25 07:00N 17°11' E 167°41'1 0.8
2017-Mar-25 06:00N 17°11' E 167°42'1 1.3
2017-Mar-25 05:00N 17°10' E 167°43'0 0.0
2017-Mar-25 04:00N 17°10' E 167°43'2 2.1
2017-Mar-25 03:00N 17°09' E 167°45'4 0.8
2017-Mar-24 22:00N 17°08' E 167°49'1 0.4
2017-Mar-24 20:00N 17°07' E 167°50'1 1.3
2017-Mar-24 19:00N 17°08' E 167°51'3 2.9
2017-Mar-24 18:00N 17°08' E 167°54'4 0.4
2017-Mar-24 08:00N 17°10' E 167°58'0 0.0
2017-Mar-24 07:00N 17°10' E 167°58'1 1.3
2017-Mar-24 06:00N 17°10' E 167°59'1 0.6
2017-Mar-24 05:00N 17°10' E 167°59'2 0.9
2017-Mar-24 03:00N 17°11' E 168°01'3 0.6
2017-Mar-23 21:00N 17°11' E 168°05'1 0.8
2017-Mar-23 20:00N 17°12' E 168°05'1 0.6
2017-Mar-23 19:00N 17°13' E 168°05'4 0.4
2017-Mar-23 09:00N 17°14' E 168°09'1 0.6
2017-Mar-23 08:00N 17°14' E 168°08'0 0.0
2017-Mar-23 07:00N 17°14' E 168°08'0 0.0
2017-Mar-23 05:00N 17°14' E 168°08'0 0.0
2017-Mar-23 03:00N 17°14' E 168°08'2 0.6
2017-Mar-22 23:00N 17°12' E 168°09'1 0.3
2017-Mar-22 21:00N 17°11' E 168°09'1 0.8
2017-Mar-22 20:00N 17°11' E 168°10'1 0.6
2017-Mar-22 19:00N 17°11' E 168°10'1 0.6
2017-Mar-22 18:00N 17°10' E 168°10'9 0.8
2017-Mar-22 07:00N 17°06' E 168°19'0 0.0
2017-Mar-22 06:00N 17°06' E 168°19'2 2.4
2017-Mar-22 05:00N 17°05' E 168°21'6 1.0
2017-Mar-21 23:00N 17°06' E 168°27'1 0.4
2017-Mar-21 20:00N 17°06' E 168°28'2 1.7
2017-Mar-21 19:00N 17°07' E 168°29'1 0.8
2017-Mar-21 18:00N 17°08' E 168°30'6 0.7
2017-Mar-21 10:00N 17°10' E 168°35'1 0.6
2017-Mar-21 09:00N 17°10' E 168°36'0 0.0
2017-Mar-21 08:00N 17°10' E 168°36'1 0.6
2017-Mar-21 07:00N 17°10' E 168°37'1 0.6
2017-Mar-21 05:00N 17°11' E 168°38'5 0.7
2017-Mar-20 22:00N 17°11' E 168°43'1 0.6
2017-Mar-20 21:00N 17°11' E 168°43'2 1.7
2017-Mar-20 20:00N 17°11' E 168°45'1 0.6
2017-Mar-20 19:00N 17°11' E 168°46'1 1.3
2017-Mar-20 18:00N 17°12' E 168°47'1 0.6
2017-Mar-20 17:00N 17°12' E 168°47'1 1.1
2017-Mar-20 16:00N 17°12' E 168°49'6 1.1
2017-Mar-20 10:00N 17°15' E 168°55'2 1.0
2017-Mar-20 08:00N 17°16' E 168°56'0 0.0
2017-Mar-20 07:00N 17°16' E 168°56'3 1.3
2017-Mar-20 05:00N 17°17' E 168°59'10 1.5
2017-Mar-19 22:00N 17°21' E 169°09'3 1.3
2017-Mar-19 20:00N 17°22' E 169°11'0 0.0
2017-Mar-19 19:00N 17°22' E 169°11'2 1.1
2017-Mar-19 17:00N 17°24' E 169°13'10 1.3
2017-Mar-19 09:00N 17°30' E 169°21'2 1.7
2017-Mar-19 08:00N 17°30' E 169°23'1 1.3
2017-Mar-19 07:00N 17°31' E 169°24'1 1.1
2017-Mar-19 06:00N 17°31' E 169°25'1 1.3
2017-Mar-19 05:00N 17°32' E 169°26'2 2.4
2017-Mar-19 04:00N 17°32' E 169°28'8 1.1
2017-Mar-18 21:00N 17°36' E 169°35'1 1.3
2017-Mar-18 20:00N 17°37' E 169°37'1 1.3
2017-Mar-18 19:00N 17°37' E 169°38'1 0.6
2017-Mar-18 17:00N 17°37' E 169°39'8 1.1
2017-Mar-18 10:00N 17°43' E 169°44'  

Dump ship's entire track history